SHASTA DAM (USBR) (SHA)

Elevation: 1067' · SACRAMENTO R basin · Operator: US Bureau of Reclamation

Provisional data, subject to change.
Query executed Saturday at 10:18:07   clock

Select a sensor type for a plot of data.
Note: Reservoir Flows are daily averages.

Earlier

Date RES ELE    STORAGE    RES CHG    TOC STO    ABV TOC    OUTFLOW    INFLOW    EVAP    FNF    RIV REL    PPT INC    RAIN    SPILL    DIS PWR   
 FEET   AF   AF   AF   AF   CFS   CFS   CFS   CFS   CFS   INCHES   INCHES   CFS   CFS  
03/01/2015 990.22 2621171 8456 4061151 -1439980 1961 6303 79 5001 0 0.00 44.50 0 1961
03/02/2015 990.42 2625306 4135 4085307 -1460001 2637 4789 67 5465 0 0.00 44.50 0 2637
03/03/2015 990.48 2626547 1241 4111225 -1484678 3292 3979 61 4957 0 0.00 44.50 0 3292
03/04/2015 990.60 2629028 2481 4135617 -1506589 3153 4459 55 4888 0 0.00 44.50 0 3153
03/05/2015 990.69 2630889 1861 4159873 -1528984 3371 4406 97 4751 0 0.00 44.50 0 3371
03/06/2015 990.82 2633577 2688 4184328 -1550751 2804 4226 67 4584 0 0.00 44.50 0 2804
03/07/2015 990.88 2634818 1241 4209976 -1575158 2947 3671 98 4520 0 0.00 44.50 0 2947
03/08/2015 991.07 2638754 3936 4234439 -1595685 1936 3999 79 4857 0 0.00 44.50 0 1936
03/09/2015 991.17 2640833 2079 4257528 -1616695 3270 4403 85 4118 0 0.00 44.50 0 3270
03/10/2015 991.34 2644368 3535 4280181 -1635813 2581 4473 110 4567 0 0.00 44.50 0 2581
03/11/2015 991.49 2647486 3118 4300894 -1653316 3489 5085 24 4744 0 0.00 44.50 0 3489
03/12/2015 991.59 2649565 2079 4323396 -1673742 3321 4387 18 4291 0 0.36 44.86 0 3321
03/13/2015 991.70 2651852 2287 4345888 -1694036 3126 4310 31 4743 0 0.00 44.86 0 3126
03/14/2015 991.84 2654763 2911 4366677 -1711914 3253 4819 98 4353 0 0.00 44.86 0 3253
03/15/2015 991.94 2656842 2079 4388516 -1731674 3332 4398 18 4275 0 0.03 44.89 0 3332
03/16/2015 992.21 2662479 5637 4408816 -1746338 1985 4845 18 4674 0 0.22 45.11 0 1985
03/17/2015 992.16 2661434 -1045 4435174 -1773740 3281 2772 18 4209 0 0.04 45.15 0 3281
03/18/2015 992.19 2662061 627 4458988 -1796927 3103 3499 80 3690 0 0.00 45.15 0 3103
03/19/2015 992.34 2665197 3136 4479180 -1813984 2936 4591 74 4281 0 0.00 45.15 0 2936
03/20/2015 992.41 2666660 1463 4500768 -1834108 3266 4090 86 4156 0 0.00 45.15 0 3266
03/21/2015 992.37 2665824 -836 4514136 -1848312 2986 2706 141 4165 0 0.00 45.15 0 2986
03/22/2015 992.44 2667287 1463 4523900 -1856614 2582 3394 74 4795 0 0.00 45.15 0 2582
03/23/2015 992.48 2668123 836 4531958 -1863836 3094 3564 49 4606 0 0.44 45.59 0 3094
03/24/2015 992.51 2668751 628 4538872 -1870121 3216 3582 49 4258 0 0.44 46.03 0 3216
03/25/2015 992.66 2671886 3135 4542673 -1870787 2866 4496 49 3827 0 0.00 46.03 0 2866
03/26/2015 992.78 2674395 2509 4545702 -1871307 3285 4599 49 3693 0 0.00 46.03 0 3285
03/27/2015 992.90 2676904 2509 4549012 -1872108 2877 4216 74 4816 0 0.00 46.03 0 2877
03/28/2015 -- -- -- -- -- -- -- -- -- -- -- -- -- --

Later | Latest

Warning! This data is preliminary and subject to revision.

Show SHA Map | Plot SHA Data | 1 Month SHA Data | Real-Time SHA Data | SHA Info